Time;durP1;ratioP1;P1;durP2;ratioP2;P2;SDS_P1;SDS_P2;PMS_P1;PMS_P2;Temp;Humidity;BMP_temperature;BMP_pressure;BME280_temperature;BME280_humidity;BME280_pressure;Samples;Min_cycle;Max_cycle;Signal;HPM_P1;HPM_P2
2022/01/04 00:01:14;;;;;;;;;4.00;1.67;;;;;13.60;74.96;99823.50;4997733;28;45781;-71
2022/01/04 00:03:40;;;;;;;;;2.00;2.00;;;;;13.57;75.80;99812.75;4996590;28;45817;-72
2022/01/04 00:06:06;;;;;;;;;1.33;1.33;;;;;13.59;75.55;99817.22;4999612;28;45327;-70
2022/01/04 00:08:32;;;;;;;;;2.33;2.00;;;;;13.59;75.62;99808.28;4995140;28;44892;-70
2022/01/04 00:11:07;;;;;;;;;2.33;2.33;;;;;13.58;76.02;99807.38;4998765;28;45453;-68
2022/01/04 00:13:33;;;;;;;;;1.00;1.00;;;;;13.57;75.36;99802.03;5000872;28;45210;-69
2022/01/04 00:15:59;;;;;;;;;3.00;1.00;;;;;13.44;75.90;99783.22;4999715;28;45058;-67
2022/01/04 00:18:25;;;;;;;;;3.00;1.00;;;;;13.41;76.07;99752.84;4994166;28;45072;-70
2022/01/04 00:20:52;;;;;;;;;0.67;0.67;;;;;13.58;76.04;99787.72;5009646;28;45479;-72
2022/01/04 00:23:18;;;;;;;;;1.00;1.00;;;;;13.57;75.65;99767.13;5000346;28;45045;-70
2022/01/04 00:25:44;;;;;;;;;1.00;1.00;;;;;13.62;75.82;99765.34;5001215;28;45416;-71
2022/01/04 00:28:10;;;;;;;;;1.00;1.00;;;;;13.66;75.68;99756.41;4993332;28;44987;-71
2022/01/04 00:30:38;;;;;;;;;1.00;1.00;;;;;13.64;75.52;99747.44;4995355;28;45180;-70
2022/01/04 00:33:05;;;;;;;;;0.67;0.67;;;;;13.67;75.91;99750.13;5001459;28;44943;-72
2022/01/04 00:35:31;;;;;;;;;1.00;1.00;;;;;13.71;75.99;99738.47;4994888;28;45374;-71
2022/01/04 00:37:57;;;;;;;;;0.67;0.67;;;;;13.63;75.60;99724.19;4994150;28;45222;-72
2022/01/04 00:40:24;;;;;;;;;0.00;0.00;;;;;13.64;75.56;99731.31;5009944;28;45653;-68
2022/01/04 00:42:49;;;;;;;;;3.00;0.00;;;;;13.67;75.85;99720.59;5002253;28;45027;-70
2022/01/04 00:45:15;;;;;;;;;0.33;0.33;;;;;13.69;75.96;99712.53;4995094;28;45273;-70
2022/01/04 00:49:09;;;;;;;;;1.00;1.00;;;;;13.54;76.18;99687.50;5000897;28;45208;-70
2022/01/04 00:50:34;;;;;;;;;1.00;1.00;;;;;13.67;76.06;99703.59;4999362;28;45148;-71
2022/01/04 00:53:00;;;;;;;;;0.00;0.00;;;;;13.66;76.07;99700.03;5005941;28;45277;-71
2022/01/04 00:55:27;;;;;;;;;1.00;1.00;;;;;13.68;75.99;99703.59;5005045;28;45024;-69
2022/01/04 00:57:52;;;;;;;;;0.00;0.00;;;;;13.70;75.67;99690.16;4999138;28;45156;-70
2022/01/04 01:00:19;;;;;;;;;0.33;0.33;;;;;13.67;76.06;99691.06;5000784;28;45539;-66
2022/01/04 01:02:44;;;;;;;;;0.00;0.00;;;;;13.53;75.77;99661.59;5003700;28;45216;-66
2022/01/04 01:05:11;;;;;;;;;2.00;1.00;;;;;13.68;75.77;99674.06;4999175;28;45279;-70
2022/01/04 01:07:38;;;;;;;;;0.00;0.00;;;;;13.74;76.18;99663.31;5012532;28;45026;-70
2022/01/04 01:12:34;;;;;;;;;0.00;0.00;;;;;13.80;75.67;99651.66;5005113;28;45214;-68
2022/01/04 01:14:59;;;;;;;;;0.00;0.00;;;;;13.81;75.60;99637.34;4996080;28;45198;-71
2022/01/04 01:17:24;;;;;;;;;1.00;0.00;;;;;13.89;75.37;99640.88;5003211;28;45117;-73
2022/01/04 01:19:50;;;;;;;;;3.00;3.00;;;;;13.49;75.07;99565.00;4998257;28;45086;-69
2022/01/04 01:22:16;;;;;;;;;3.00;3.00;;;;;13.91;74.79;99635.47;4993560;28;45231;-71
2022/01/04 01:24:41;;;;;;;;;6.33;5.67;;;;;13.70;73.91;99620.38;4994553;28;45188;-68
2022/01/04 01:27:06;;;;;;;;;6.67;5.00;;;;;13.27;74.24;99554.34;4994079;28;45475;-68
2022/01/04 01:29:32;;;;;;;;;9.33;7.33;;;;;13.63;72.87;99612.34;4996764;28;45745;-68
2022/01/04 01:31:57;;;;;;;;;7.33;6.67;;;;;13.67;72.96;99628.44;4997378;28;45375;-72
2022/01/04 01:34:23;;;;;;;;;5.33;5.33;;;;;13.62;72.93;99629.34;4994756;28;45374;-68
2022/01/04 01:36:49;;;;;;;;;5.00;4.00;;;;;13.56;72.87;99617.75;5004630;28;45216;-69
2022/01/04 01:39:14;;;;;;;;;6.33;4.00;;;;;13.48;72.34;99609.75;5000086;28;45614;-68
2022/01/04 01:41:40;;;;;;;;;7.67;6.33;;;;;13.41;72.06;99599.91;5003720;28;45137;-69
2022/01/04 01:44:05;;;;;;;;;4.00;4.00;;;;;13.40;71.44;99601.72;4994297;28;45210;-69
2022/01/04 01:46:30;;;;;;;;;3.00;3.00;;;;;13.36;71.75;99594.56;5005095;28;44845;-68
2022/01/04 01:48:56;;;;;;;;;3.00;3.00;;;;;13.31;71.77;99587.41;4997386;28;45717;-71
2022/01/04 01:51:23;;;;;;;;;3.00;3.00;;;;;13.23;71.79;99585.66;4997605;28;45149;-69
2022/01/04 01:53:49;;;;;;;;;5.67;3.67;;;;;13.15;71.92;99575.81;5006971;28;45051;-70
2022/01/04 01:56:15;;;;;;;;;3.00;3.00;;;;;12.96;71.79;99541.03;5000005;28;45381;-69
2022/01/04 01:58:40;;;;;;;;;3.00;1.00;;;;;13.07;71.21;99562.44;4992698;28;45161;-70
2022/01/04 02:01:05;;;;;;;;;3.00;3.00;;;;;13.04;71.57;99568.69;5001592;28;45068;-70
2022/01/04 02:03:30;;;;;;;;;2.00;2.00;;;;;13.01;71.61;99562.47;4993856;28;45119;-70
2022/01/04 02:05:56;;;;;;;;;3.00;3.00;;;;;12.83;71.38;99541.94;5003204;28;45158;-69
2022/01/04 02:08:22;;;;;;;;;4.00;1.00;;;;;12.85;71.05;99566.97;4993655;28;45579;-71
2022/01/04 02:10:49;;;;;;;;;1.67;1.67;;;;;12.91;71.27;99562.47;5000716;28;45263;-69
2022/01/04 02:13:15;;;;;;;;;2.33;2.00;;;;;12.82;72.28;99559.84;4993038;28;45011;-71
2022/01/04 02:15:40;;;;;;;;;2.00;2.00;;;;;12.87;72.10;99554.47;4993880;28;45171;-71
2022/01/04 02:18:06;;;;;;;;;3.00;1.33;;;;;12.77;71.69;99534.84;4994487;28;45714;-72
2022/01/04 02:20:34;;;;;;;;;2.33;0.67;;;;;12.85;70.66;99546.44;5001185;28;45022;-68
2022/01/04 02:23:00;;;;;;;;;1.00;1.00;;;;;12.82;71.24;99537.47;4998907;28;44963;-70
2022/01/04 02:25:25;;;;;;;;;2.00;0.00;;;;;12.77;71.22;99534.84;4996947;28;45104;-71
2022/01/04 02:27:51;;;;;;;;;1.33;1.33;;;;;12.77;71.61;99532.16;4979634;28;46398;-70
2022/01/04 02:30:20;;;;;;;;;1.00;1.00;;;;;12.73;71.75;99531.25;5001595;28;45204;-70
2022/01/04 02:32:47;;;;;;;;;0.33;0.33;;;;;12.71;71.65;99527.69;4998744;28;45086;-70
2022/01/04 02:35:14;;;;;;;;;1.00;1.00;;;;;12.70;70.68;99506.25;5000837;28;45280;-70
2022/01/04 02:37:39;;;;;;;;;0.33;0.33;;;;;12.68;70.44;99497.31;4994522;28;46111;-70
2022/01/04 02:40:05;;;;;;;;;1.00;1.00;;;;;12.66;71.42;99505.34;4991913;28;45221;-69
2022/01/04 02:42:30;;;;;;;;;0.33;0.33;;;;;12.65;70.94;99486.59;5003098;28;45201;-70
2022/01/04 02:44:58;;;;;;;;;1.00;1.00;;;;;12.65;71.62;99490.16;4993341;28;45177;-70
2022/01/04 02:47:23;;;;;;;;;1.00;1.00;;;;;12.64;72.18;99482.16;4997791;28;45562;-71
2022/01/04 02:49:49;;;;;;;;;1.00;1.00;;;;;12.61;71.68;99477.69;4996982;28;45152;-71
2022/01/04 02:52:14;;;;;;;;;1.00;1.00;;;;;12.63;70.72;99475.00;5002352;28;45006;-69
2022/01/04 02:54:39;;;;;;;;;1.00;1.00;;;;;12.62;70.98;99470.53;5000071;28;45164;-71
2022/01/04 02:57:05;;;;;;;;;0.00;0.00;;;;;12.59;70.94;99462.50;4999874;28;45464;-70
2022/01/04 02:59:30;;;;;;;;;0.67;0.67;;;;;12.55;71.79;99456.25;4993758;28;45099;-68
2022/01/04 03:01:56;;;;;;;;;0.33;0.33;;;;;12.56;71.24;99444.66;4999184;28;45236;-69
2022/01/04 03:04:21;;;;;;;;;1.00;1.00;;;;;12.54;70.74;99436.63;4994178;28;45398;-72
2022/01/04 03:06:47;;;;;;;;;1.67;1.00;;;;;12.55;70.80;99434.81;4992549;28;45010;-70
2022/01/04 03:09:13;;;;;;;;;0.00;0.00;;;;;12.57;71.12;99433.03;4998562;28;45033;-70
2022/01/04 03:11:38;;;;;;;;;0.00;0.00;;;;;12.58;70.65;99428.59;4998174;28;45091;-67
2022/01/04 03:14:03;;;;;;;;;0.33;0.33;;;;;12.42;71.71;99407.19;5007786;28;45301;-71
2022/01/04 03:16:29;;;;;;;;;0.00;0.00;;;;;12.46;71.12;99419.69;4998833;28;45329;-68
2022/01/04 03:19:02;;;;;;;;;0.00;0.00;;;;;12.52;70.92;99418.75;4991706;28;45123;-68
2022/01/04 03:21:28;;;;;;;;;0.33;0.33;;;;;12.52;71.40;99416.06;4998169;28;45157;-70
2022/01/04 03:23:54;;;;;;;;;0.67;0.67;;;;;12.45;70.80;99404.50;4999232;28;45209;-69
2022/01/04 03:26:19;;;;;;;;;2.67;2.33;;;;;12.53;70.63;99400.00;5000803;28;45748;-71
2022/01/04 03:28:44;;;;;;;;;4.00;4.00;;;;;12.50;71.19;99409.84;4991314;28;44921;-71
2022/01/04 03:31:11;;;;;;;;;6.00;3.00;;;;;12.50;70.71;99402.69;4997362;28;45083;-69
2022/01/04 03:33:37;;;;;;;;;4.00;2.33;;;;;12.50;71.55;99404.47;4992112;28;45374;-69
2022/01/04 03:36:03;;;;;;;;;1.00;1.00;;;;;12.50;71.54;99399.13;4995084;28;45667;-69
2022/01/04 03:38:29;;;;;;;;;2.00;2.00;;;;;12.49;71.11;99400.94;4991446;28;45026;-70
2022/01/04 03:40:54;;;;;;;;;1.00;1.00;;;;;12.47;71.91;99385.75;4996191;28;45592;-69
2022/01/04 03:43:21;;;;;;;;;0.33;0.33;;;;;12.49;71.31;99386.66;4993261;28;45138;-68
2022/01/04 03:45:47;;;;;;;;;1.33;1.00;;;;;12.47;71.05;99381.28;4994017;28;45340;-69
2022/01/04 03:48:12;;;;;;;;;2.00;2.00;;;;;12.43;71.70;99387.53;4996198;28;45229;-68
2022/01/04 03:50:39;;;;;;;;;1.00;0.00;;;;;12.41;70.94;99378.63;4984417;28;44928;-69
2022/01/04 03:53:04;;;;;;;;;0.00;0.00;;;;;12.32;71.24;99357.22;5000983;28;45181;-71
2022/01/04 03:55:30;;;;;;;;;1.67;1.00;;;;;11.67;70.56;99244.06;4998824;28;45614;-69
2022/01/04 03:57:55;;;;;;;;;0.00;0.00;;;;;12.37;71.05;99365.25;5004363;28;44879;-69
2022/01/04 04:00:20;;;;;;;;;0.00;0.00;;;;;12.39;71.36;99368.81;4995249;28;45523;-70
2022/01/04 04:02:45;;;;;;;;;0.00;0.00;;;;;12.38;71.31;99378.63;4998272;28;45143;-69
2022/01/04 04:05:12;;;;;;;;;0.33;0.33;;;;;12.35;71.39;99374.16;4993759;28;48844;-71
2022/01/04 04:07:38;;;;;;;;;4.33;4.00;;;;;12.27;71.47;99351.88;4998855;28;45011;-71
2022/01/04 04:10:04;;;;;;;;;1.00;1.00;;;;;12.38;70.55;99372.41;5001662;28;45111;-69
2022/01/04 04:12:29;;;;;;;;;1.00;1.00;;;;;12.37;71.29;99386.66;4994730;28;45118;-70
2022/01/04 04:14:55;;;;;;;;;0.00;0.00;;;;;12.25;71.17;99361.69;4996402;28;45130;-71
2022/01/04 04:17:21;;;;;;;;;0.00;0.00;;;;;12.34;71.17;99384.88;4998451;28;45226;-70
2022/01/04 04:19:46;;;;;;;;;1.00;0.00;;;;;12.29;69.73;99378.66;5007272;28;45176;-70
2022/01/04 04:22:12;;;;;;;;;0.00;0.00;;;;;12.26;70.61;99387.59;4992860;28;45011;-66
2022/01/04 04:24:37;;;;;;;;;0.00;0.00;;;;;12.30;71.41;99386.69;5008736;28;45337;-69
2022/01/04 04:27:02;;;;;;;;;0.00;0.00;;;;;12.21;70.95;99359.94;5003474;28;45003;-70
2022/01/04 04:29:28;;;;;;;;;1.00;0.00;;;;;12.37;70.55;99379.53;5002093;28;44868;-71
2022/01/04 04:31:53;;;;;;;;;0.00;0.00;;;;;12.36;70.28;99388.47;4993517;28;44973;-69
2022/01/04 04:34:18;;;;;;;;;0.00;0.00;;;;;12.04;70.25;99346.56;4989673;28;45430;-70
2022/01/04 04:36:44;;;;;;;;;0.00;0.00;;;;;12.39;71.32;99390.22;4999138;28;45436;-70
2022/01/04 04:39:09;;;;;;;;;0.00;0.00;;;;;12.34;70.22;99380.44;5003151;28;45193;-69
2022/01/04 04:41:34;;;;;;;;;0.00;0.00;;;;;12.40;70.23;99394.69;5001421;28;45342;-70
2022/01/04 04:44:00;;;;;;;;;0.00;0.00;;;;;12.37;71.15;99392.03;4998954;28;45031;-71
2022/01/04 04:46:25;;;;;;;;;0.00;0.00;;;;;12.33;70.19;99397.38;5004328;28;45118;-71
2022/01/04 04:48:50;;;;;;;;;0.00;0.00;;;;;10.64;70.19;99117.69;5000405;28;45154;-70
2022/01/04 04:51:16;;;;;;;;;0.00;0.00;;;;;12.30;70.61;99400.06;4985608;28;45456;-71
2022/01/04 04:53:41;;;;;;;;;0.00;0.00;;;;;12.27;69.44;99400.06;5001100;28;45188;-69
2022/01/04 04:56:06;;;;;;;;;0.00;0.00;;;;;12.25;70.54;99396.50;4995121;28;45443;-71
2022/01/04 04:58:32;;;;;;;;;0.00;0.00;;;;;12.20;69.43;99389.41;4982945;28;45570;-70
2022/01/04 05:00:57;;;;;;;;;0.00;0.00;;;;;11.88;70.01;99334.09;4992083;28;44975;-68
2022/01/04 05:03:22;;;;;;;;;0.00;0.00;;;;;12.20;70.35;99419.75;4995851;28;45194;-70
2022/01/04 05:05:48;;;;;;;;;3.00;1.00;;;;;12.32;70.03;99416.13;4985363;28;45272;-71
2022/01/04 05:08:13;;;;;;;;;0.00;0.00;;;;;12.29;70.02;99411.69;4990757;28;45079;-69
2022/01/04 05:10:38;;;;;;;;;1.00;1.00;;;;;12.31;69.94;99414.38;4999948;28;45483;-71
2022/01/04 05:13:04;;;;;;;;;0.00;0.00;;;;;12.24;69.76;99413.50;4999519;28;45630;-71
2022/01/04 05:15:29;;;;;;;;;0.00;0.00;;;;;12.24;69.35;99434.91;4995264;28;45088;-69
2022/01/04 05:17:54;;;;;;;;;0.00;0.00;;;;;12.22;70.13;99428.66;5006222;28;45129;-70
2022/01/04 05:20:20;;;;;;;;;0.00;0.00;;;;;12.16;69.67;99421.53;5010778;28;44980;-72
2022/01/04 05:22:45;;;;;;;;;1.00;0.00;;;;;12.13;69.08;99434.91;4991567;28;45710;-70
2022/01/04 05:25:11;;;;;;;;;0.00;0.00;;;;;12.10;69.83;99428.69;4992913;28;45282;-70
2022/01/04 05:27:37;;;;;;;;;0.00;0.00;;;;;12.06;69.36;99437.59;4991813;28;45354;-72
2022/01/04 05:30:03;;;;;;;;;0.00;0.00;;;;;11.96;69.71;99424.22;4992716;28;44948;-70
2022/01/04 05:32:29;;;;;;;;;0.00;0.00;;;;;12.01;69.53;99442.06;4997052;28;45342;-69
2022/01/04 05:34:54;;;;;;;;;0.00;0.00;;;;;11.69;69.02;99398.31;4991045;28;44976;-72
2022/01/04 05:37:19;;;;;;;;;1.00;1.00;;;;;11.91;69.53;99442.09;4991339;28;44940;-72
2022/01/04 05:39:45;;;;;;;;;0.00;0.00;;;;;11.87;68.77;99423.31;4992945;28;45484;-70
2022/01/04 05:42:10;;;;;;;;;0.67;0.00;;;;;11.87;69.78;99434.91;4994844;28;45156;-66
2022/01/04 05:44:37;;;;;;;;;0.00;0.00;;;;;11.88;69.56;99430.44;4991045;28;45473;-71
2022/01/04 05:47:06;;;;;;;;;0.00;0.00;;;;;11.87;69.95;99436.69;4993416;28;45376;-68
2022/01/04 05:49:32;;;;;;;;;0.00;0.00;;;;;11.93;69.45;99431.38;4991137;28;45202;-71
2022/01/04 05:51:57;;;;;;;;;0.00;0.00;;;;;11.90;69.09;99429.56;4998999;28;45313;-68
2022/01/04 05:54:22;;;;;;;;;0.00;0.00;;;;;11.92;69.13;99427.78;4995544;28;45177;-69
2022/01/04 05:56:48;;;;;;;;;1.00;1.00;;;;;11.53;68.58;99361.75;4999793;28;45118;-71
2022/01/04 05:59:13;;;;;;;;;0.00;0.00;;;;;11.93;68.47;99423.34;5007869;28;44979;-70
2022/01/04 06:01:38;;;;;;;;;0.00;0.00;;;;;12.00;69.05;99446.53;4998240;28;45551;-70
2022/01/04 06:04:04;;;;;;;;;1.00;1.00;;;;;12.03;69.13;99432.25;4979541;28;45484;-69
2022/01/04 06:06:29;;;;;;;;;1.00;0.00;;;;;12.09;69.08;99426.88;5005435;28;45530;-69
2022/01/04 06:08:55;;;;;;;;;1.00;1.00;;;;;12.14;67.92;99423.31;4993467;28;45124;-70
2022/01/04 06:16:48;;;;;;;;;2.00;2.00;;;;;12.17;68.57;99422.41;4997412;28;45004;-70
2022/01/04 06:19:13;;;;;;;;;1.00;1.00;;;;;12.17;67.76;99417.06;4991606;28;45498;-69
2022/01/04 06:21:39;;;;;;;;;1.00;1.00;;;;;12.09;67.24;99418.84;5002338;28;45610;-69
2022/01/04 06:24:04;;;;;;;;;4.00;2.67;;;;;12.10;67.81;99436.72;4994301;28;45341;-71
2022/01/04 06:26:30;;;;;;;;;0.00;0.00;;;;;12.11;67.92;99433.13;4996464;28;45489;-70
2022/01/04 06:28:55;;;;;;;;;4.33;3.33;;;;;12.14;66.80;99441.16;4992185;28;45078;-71
2022/01/04 06:31:21;;;;;;;;;1.00;1.00;;;;;12.13;67.29;99459.00;4997978;28;45884;-71
2022/01/04 06:33:46;;;;;;;;;0.00;0.00;;;;;12.13;67.45;99471.53;4991175;28;45019;-71
2022/01/04 06:36:13;;;;;;;;;1.00;1.00;;;;;12.15;67.45;99467.03;4991327;28;45034;-71
2022/01/04 06:38:39;;;;;;;;;2.00;0.00;;;;;11.98;67.66;99441.19;4986664;28;45203;-70
2022/01/04 06:41:04;;;;;;;;;4.00;1.67;;;;;12.19;68.34;99462.56;4985073;28;46337;-70
2022/01/04 06:43:29;;;;;;;;;1.00;1.00;;;;;12.12;67.67;99451.88;4996856;28;48398;-70
2022/01/04 06:45:55;;;;;;;;;1.67;1.00;;;;;12.15;68.06;99473.28;5004657;28;45181;-72
2022/01/04 06:48:20;;;;;;;;;0.67;0.67;;;;;12.08;67.12;99467.97;4981234;28;45176;-70
2022/01/04 06:50:46;;;;;;;;;1.00;1.00;;;;;12.15;67.56;99472.41;4982957;28;46975;-69
2022/01/04 06:53:11;;;;;;;;;1.33;1.33;;;;;12.12;67.63;99477.75;4995133;28;45093;-70
2022/01/04 06:55:36;;;;;;;;;2.00;2.00;;;;;11.94;68.23;99450.09;4991637;28;45237;-69
2022/01/04 06:58:02;;;;;;;;;3.00;3.00;;;;;12.19;68.20;99492.03;4993011;28;45134;-70
2022/01/04 07:00:27;;;;;;;;;9.25;9.25;;;;;12.21;67.74;99503.63;4992673;28;45540;-70
2022/01/04 07:02:52;;;;;;;;;4.50;4.50;;;;;12.23;67.91;99508.09;4993460;28;45391;-70
2022/01/04 07:05:18;;;;;;;;;7.50;7.50;;;;;12.13;67.54;99484.91;4992095;28;44994;-70
2022/01/04 07:07:43;;;;;;;;;1.00;1.00;;;;;12.19;67.73;99490.22;4991053;28;45136;-70
2022/01/04 07:10:09;;;;;;;;;3.67;3.00;;;;;12.15;68.27;99480.44;4993870;28;45619;-68
2022/01/04 07:12:34;;;;;;;;;2.00;2.00;;;;;12.05;67.21;99467.94;4992637;28;45136;-69
2022/01/04 07:14:59;;;;;;;;;2.00;0.67;;;;;12.10;67.12;99477.75;4993328;28;45217;-68
2022/01/04 07:17:25;;;;;;;;;1.67;1.67;;;;;12.11;67.46;99497.38;4992507;28;45178;-71
2022/01/04 07:19:50;;;;;;;;;3.33;3.33;;;;;12.08;66.73;99492.94;4976777;28;45401;-69
2022/01/04 07:22:16;;;;;;;;;3.00;2.67;;;;;12.13;67.64;99499.19;5007727;28;45265;-71
2022/01/04 07:24:41;;;;;;;;;1.00;1.00;;;;;12.04;67.25;99475.06;5007275;28;45327;-70
2022/01/04 07:27:06;;;;;;;;;7.75;7.50;;;;;12.17;67.01;99494.72;5010307;28;45362;-69
2022/01/04 07:29:32;;;;;;;;;4.00;2.67;;;;;12.17;67.84;99498.25;5011121;28;45265;-70
2022/01/04 07:31:57;;;;;;;;;3.33;2.00;;;;;12.20;66.83;99507.22;5011039;28;45063;-70
2022/01/04 07:34:22;;;;;;;;;3.67;1.67;;;;;12.16;68.01;99507.22;5006999;28;45611;-73
2022/01/04 07:36:48;;;;;;;;;4.00;4.00;;;;;12.15;68.27;99517.91;4998537;28;45446;-70
2022/01/04 07:39:13;;;;;;;;;3.00;3.00;;;;;12.13;67.66;99523.28;4984735;28;45479;-71
2022/01/04 07:41:39;;;;;;;;;5.00;4.50;;;;;12.16;67.79;99528.63;4987444;28;45340;-69
2022/01/04 07:44:04;;;;;;;;;13.50;13.00;;;;;12.17;67.51;99524.16;4993851;28;45493;-69
2022/01/04 07:46:29;;;;;;;;;9.50;7.50;;;;;12.16;67.67;99535.78;4987997;28;45566;-70
2022/01/04 07:48:55;;;;;;;;;10.50;9.50;;;;;12.12;67.43;99540.22;4988084;28;45807;-68
2022/01/04 07:51:20;;;;;;;;;6.25;5.25;;;;;12.03;66.84;99524.16;4987060;28;45433;-69
2022/01/04 07:53:46;;;;;;;;;5.33;5.33;;;;;12.05;67.48;99541.13;4979416;28;46063;-69
2022/01/04 07:56:11;;;;;;;;;29.50;28.50;;;;;12.06;67.02;99539.31;4985118;28;45279;-70
2022/01/04 07:58:37;;;;;;;;;7.50;6.00;;;;;12.07;67.15;99551.81;4992655;28;46854;-73
2022/01/04 08:01:02;;;;;;;;;13.00;9.25;;;;;12.00;67.24;99548.25;4984492;28;45683;-68
2022/01/04 08:03:27;;;;;;;;;4.33;4.33;;;;;11.98;67.17;99566.97;4988736;28;45278;-72
2022/01/04 08:05:53;;;;;;;;;8.67;4.33;;;;;11.92;67.38;99576.78;4985222;28;45519;-69
2022/01/04 08:08:18;;;;;;;;;8.25;6.00;;;;;11.79;67.17;99571.34;4990738;28;46308;-69
2022/01/04 08:10:45;;;;;;;;;8.25;5.00;;;;;11.74;68.03;99556.19;4989153;28;45542;-69
2022/01/04 08:13:11;;;;;;;;;6.75;6.75;;;;;11.96;67.77;99592.88;4994751;28;45733;-70
2022/01/04 08:15:36;;;;;;;;;5.00;5.00;;;;;11.94;66.92;99589.28;4981176;28;45371;-71
2022/01/04 08:18:01;;;;;;;;;4.00;2.00;;;;;11.91;66.68;99599.03;4992497;28;46037;-69
2022/01/04 08:20:27;;;;;;;;;4.67;4.67;;;;;11.99;66.94;99621.41;4964860;28;45562;-70
2022/01/04 08:22:52;;;;;;;;;2.67;2.00;;;;;11.93;66.25;99602.69;4989168;28;46049;-70
2022/01/04 08:25:18;;;;;;;;;3.00;3.00;;;;;12.02;66.40;99610.72;4985544;28;45576;-69
2022/01/04 08:27:43;;;;;;;;;10.75;10.75;;;;;11.98;66.69;99599.09;4995110;28;45721;-70
2022/01/04 08:30:14;;;;;;;;;3.67;2.00;;;;;11.92;66.89;99572.31;4986347;28;45513;-69
2022/01/04 08:32:40;;;;;;;;;2.00;2.00;;;;;11.95;65.57;99569.66;4992476;28;45471;-67
2022/01/04 08:35:07;;;;;;;;;2.33;2.33;;;;;12.11;66.36;99604.47;4989639;28;45664;-69
2022/01/04 08:37:32;;;;;;;;;3.00;3.00;;;;;11.96;65.75;99570.53;4992373;28;47470;-69
2022/01/04 08:39:57;;;;;;;;;1.33;1.33;;;;;12.20;65.50;99630.38;4996646;28;45619;-67
2022/01/04 08:42:24;;;;;;;;;2.00;1.00;;;;;12.19;66.83;99620.56;4982165;28;45416;-69
2022/01/04 08:44:50;;;;;;;;;1.33;1.33;;;;;12.17;66.42;99621.44;4987765;28;45450;-69
2022/01/04 08:47:15;;;;;;;;;6.33;5.00;;;;;12.22;65.38;99623.25;4988706;28;46053;-68
2022/01/04 08:49:41;;;;;;;;;2.00;2.00;;;;;12.23;65.84;99623.25;4980416;28;45554;-70
2022/01/04 08:52:07;;;;;;;;;44.75;35.75;;;;;12.04;66.16;99598.22;4981666;28;45577;-73
2022/01/04 08:54:34;;;;;;;;;2.00;2.00;;;;;12.20;65.17;99639.31;4990009;28;45298;-70
2022/01/04 08:57:00;;;;;;;;;2.00;2.00;;;;;12.16;66.67;99637.53;4989730;28;46513;-70
2022/01/04 08:59:27;;;;;;;;;3.00;1.33;;;;;12.12;65.62;99635.72;4985794;28;45544;-69
2022/01/04 09:01:52;;;;;;;;;1.33;1.33;;;;;12.00;66.14;99631.25;4982871;28;45540;-70
2022/01/04 09:04:18;;;;;;;;;2.33;2.00;;;;;11.60;67.11;99573.09;4989600;28;45429;-66
2022/01/04 09:06:43;;;;;;;;;16.75;14.00;;;;;11.94;66.57;99632.09;4993043;28;45903;-69
2022/01/04 09:09:08;;;;;;;;;3.00;1.33;;;;;11.78;66.90;99603.50;4990040;28;45593;-67
2022/01/04 09:11:34;;;;;;;;;1.00;1.00;;;;;11.86;66.47;99641.84;4987745;28;45707;-69
2022/01/04 09:19:19;;;;;;;;;5.00;3.00;;;;;11.29;66.75;99596.16;4969792;28;45542;-70
2022/01/04 09:21:45;;;;;;;;;5.00;4.00;;;;;11.67;67.88;99651.59;4992632;28;45541;-68
2022/01/04 09:24:10;;;;;;;;;3.25;2.50;;;;;11.71;68.65;99649.84;4993047;28;45484;-70
2022/01/04 09:26:36;;;;;;;;;3.50;2.25;;;;;11.53;68.29;99616.78;4988075;28;46403;-71
2022/01/04 09:29:03;;;;;;;;;5.00;3.00;;;;;11.72;68.45;99649.84;4980578;28;45381;-71
2022/01/04 09:31:28;;;;;;;;;2.33;1.33;;;;;11.66;68.85;99648.91;4983658;28;45479;-70
2022/01/04 09:33:56;;;;;;;;;3.67;2.00;;;;;11.69;67.42;99641.78;4985094;28;45519;-71
2022/01/04 09:36:22;;;;;;;;;1.67;1.67;;;;;11.53;67.68;99616.78;4982638;28;46313;-70
2022/01/04 09:38:47;;;;;;;;;3.00;2.50;;;;;11.67;66.87;99643.59;4990069;28;45329;-67
2022/01/04 09:41:12;;;;;;;;;2.67;1.00;;;;;11.72;67.18;99639.13;4985492;28;45427;-68
2022/01/04 09:43:38;;;;;;;;;8.33;4.00;;;;;11.74;67.43;99621.31;4989419;28;45567;-70
2022/01/04 09:46:03;;;;;;;;;3.00;1.33;;;;;11.73;67.15;99637.34;4993445;28;46134;-71
2022/01/04 09:48:29;;;;;;;;;1.67;1.67;;;;;11.71;67.90;99647.16;4990511;28;45421;-70
2022/01/04 09:50:57;;;;;;;;;1.67;1.67;;;;;11.65;66.85;99658.75;4990271;28;45525;-72
2022/01/04 09:53:23;;;;;;;;;3.33;3.33;;;;;11.63;67.14;99660.50;4992047;28;45380;-69
2022/01/04 09:55:54;;;;;;;;;1.00;1.00;;;;;11.64;67.57;99669.44;4987010;28;46328;-72
2022/01/04 09:58:22;;;;;;;;;1.67;1.67;;;;;11.68;68.35;99673.91;4986319;28;45524;-71
2022/01/04 10:00:49;;;;;;;;;2.75;2.75;;;;;11.71;66.91;99679.25;4986167;28;45522;-73
2022/01/04 10:03:26;;;;;;;;;3.00;3.00;;;;;11.61;67.40;99667.63;4981220;28;45518;-74
2022/01/04 10:06:15;;;;;;;;;5.25;3.50;;;;;11.71;67.60;99681.94;4985908;28;45770;-69
2022/01/04 10:08:52;;;;;;;;;2.50;2.50;;;;;11.68;68.04;99701.56;4989223;28;45483;-70
2022/01/04 10:11:28;;;;;;;;;2.00;2.00;;;;;11.69;68.50;99692.63;4980573;28;45528;-69
2022/01/04 10:13:54;;;;;;;;;4.67;4.67;;;;;11.68;68.38;99693.53;4978850;28;45390;-72
2022/01/04 10:16:19;;;;;;;;;4.50;3.25;;;;;11.72;67.95;99698.00;4987521;28;45633;-72
2022/01/04 10:18:48;;;;;;;;;2.00;2.00;;;;;11.35;67.85;99644.34;4982726;28;45444;-74
2022/01/04 10:21:15;;;;;;;;;3.00;3.00;;;;;11.74;68.34;99703.38;4982501;28;45504;-71
2022/01/04 10:23:47;;;;;;;;;2.67;2.00;;;;;11.57;68.27;99671.19;4979928;28;45432;-72
2022/01/04 10:26:13;;;;;;;;;3.67;2.67;;;;;11.57;68.28;99666.72;4989246;28;45455;-74
2022/01/04 10:28:44;;;;;;;;;3.33;3.33;;;;;11.74;68.77;99688.19;4980745;28;45555;-71
2022/01/04 10:31:17;;;;;;;;;8.25;4.00;;;;;11.70;68.04;99662.31;4992306;28;45408;-73
2022/01/04 10:33:44;;;;;;;;;2.00;2.00;;;;;11.73;67.99;99669.44;4985639;28;45374;-71
2022/01/04 10:36:11;;;;;;;;;2.33;2.33;;;;;11.82;67.14;99682.88;4982564;28;45475;-74
2022/01/04 10:38:38;;;;;;;;;5.25;5.25;;;;;11.91;67.58;99691.00;4980500;28;45522;-71
2022/01/04 10:41:04;;;;;;;;;5.25;5.25;;;;;11.97;67.37;99674.06;4986682;28;45614;-73
2022/01/04 10:43:37;;;;;;;;;3.00;3.00;;;;;12.00;67.40;99676.75;4995267;28;45121;-73
2022/01/04 10:46:03;;;;;;;;;1.33;1.33;;;;;12.02;67.12;99676.75;4990092;28;45482;-70
2022/01/04 10:48:33;;;;;;;;;11.75;8.00;;;;;11.84;67.17;99642.75;4991928;28;45627;-74
2022/01/04 10:51:05;;;;;;;;;7.75;7.75;;;;;12.02;67.98;99666.94;4984915;28;45510;-70
2022/01/04 10:53:43;;;;;;;;;6.00;3.50;;;;;11.99;67.67;99680.28;4988600;28;45707;-72
2022/01/04 10:56:11;;;;;;;;;7.00;4.75;;;;;11.99;66.45;99666.91;4979598;28;45682;-74
2022/01/04 10:58:40;;;;;;;;;3.25;2.00;;;;;11.84;67.04;99654.34;4989222;28;45408;-71
2022/01/04 11:01:10;;;;;;;;;2.33;2.33;;;;;11.88;67.31;99655.25;4986528;28;45430;-72
2022/01/04 11:03:41;;;;;;;;;5.00;4.00;;;;;11.87;66.92;99664.19;4981735;28;45415;-72
2022/01/04 11:06:20;;;;;;;;;3.00;3.00;;;;;11.95;67.21;99679.41;4988024;28;45495;-69
2022/01/04 11:08:46;;;;;;;;;3.00;1.00;;;;;11.90;66.38;99672.22;4988761;28;45459;-72
2022/01/04 11:11:12;;;;;;;;;7.67;3.67;;;;;11.49;67.24;99612.28;4988323;28;45622;-75
2022/01/04 11:13:38;;;;;;;;;4.67;3.00;;;;;11.88;67.81;99674.88;4965395;28;45395;-73
2022/01/04 11:16:06;;;;;;;;;4.00;4.00;;;;;11.61;67.38;99628.41;4976984;28;45836;-72
2022/01/04 11:18:33;;;;;;;;;3.75;3.75;;;;;11.90;68.16;99674.91;4990005;28;45507;-73
2022/01/04 11:20:59;;;;;;;;;2.00;2.00;;;;;11.73;68.21;99643.63;4986042;28;45556;-74
2022/01/04 11:23:31;;;;;;;;;4.00;2.67;;;;;11.41;67.64;99580.16;4981987;28;45548;-73
2022/01/04 11:25:58;;;;;;;;;3.00;3.00;;;;;11.93;67.44;99675.81;4994596;28;45261;-70
2022/01/04 11:28:24;;;;;;;;;3.33;3.33;;;;;11.96;68.22;99682.97;5006893;28;45152;-74
2022/01/04 11:31:22;;;;;;;;;5.33;3.00;;;;;11.96;67.11;99681.19;4998523;28;45169;-74
2022/01/04 11:34:05;;;;;;;;;3.25;3.25;;;;;11.96;68.41;99674.94;5007482;28;45006;-74
2022/01/04 11:36:35;;;;;;;;;5.00;3.75;;;;;11.94;67.07;99674.91;4997258;28;46202;-74
2022/01/04 11:39:01;;;;;;;;;2.00;2.00;;;;;11.76;67.94;99657.00;4987447;28;45462;-73
2022/01/04 11:41:32;;;;;;;;;2.25;2.25;;;;;11.89;68.27;99675.78;4982338;28;45389;-72
2022/01/04 11:44:17;;;;;;;;;3.67;2.00;;;;;11.91;68.38;99669.59;4981823;28;45514;-73